Time;durP1;ratioP1;P1;durP2;ratioP2;P2;SDS_P1;SDS_P2;PMS_P1;PMS_P2;Temp;Humidity;BMP_temperature;BMP_pressure;BME280_temperature;BME280_humidity;BME280_pressure;Samples;Min_cycle;Max_cycle;Signal;HPM_P1;HPM_P2
2022/05/19 00:01:49;;;;;;;24.00;16.65;;;16.50;99.90;;;;;;5113589;28;20079;-62
2022/05/19 00:04:15;;;;;;;23.77;16.55;;;16.50;99.90;;;;;;5113217;28;20500;-61
2022/05/19 00:06:41;;;;;;;22.92;16.55;;;16.50;99.90;;;;;;5113134;28;20461;-60
2022/05/19 00:09:07;;;;;;;24.75;17.80;;;16.50;99.90;;;;;;5095468;28;20039;-60
2022/05/19 00:11:33;;;;;;;21.60;16.80;;;16.50;99.90;;;;;;5112863;28;20054;-61
2022/05/19 00:14:00;;;;;;;24.63;17.77;;;16.50;99.90;;;;;;5113484;28;20096;-60
2022/05/19 00:16:27;;;;;;;23.67;19.27;;;16.50;99.90;;;;;;5113347;28;20177;-61
2022/05/19 00:18:52;;;;;;;22.73;19.13;;;16.50;99.90;;;;;;5113140;28;20083;-61
2022/05/19 00:21:18;;;;;;;24.60;18.52;;;16.40;99.90;;;;;;5112807;28;20079;-61
2022/05/19 00:23:44;;;;;;;26.52;19.67;;;16.40;99.90;;;;;;5094689;28;20036;-61
2022/05/19 00:26:10;;;;;;;27.40;20.80;;;16.40;99.90;;;;;;5113250;28;20158;-61
2022/05/19 00:28:36;;;;;;;29.58;20.52;;;16.30;99.90;;;;;;5094628;28;20090;-62
2022/05/19 00:31:02;;;;;;;29.25;20.88;;;16.30;99.90;;;;;;5094687;28;20048;-62
2022/05/19 00:33:28;;;;;;;25.42;19.67;;;16.30;99.90;;;;;;5112397;28;20473;-61
2022/05/19 00:35:53;;;;;;;27.75;20.23;;;16.20;99.90;;;;;;5112944;28;20043;-61
2022/05/19 00:38:19;;;;;;;26.63;20.80;;;16.10;99.90;;;;;;5112743;28;20505;-62
2022/05/19 00:40:50;;;;;;;30.05;22.25;;;16.10;99.90;;;;;;5094551;28;20044;-61
2022/05/19 00:43:26;;;;;;;29.05;21.80;;;16.10;99.90;;;;;;5112769;28;20396;-60
2022/05/19 00:46:02;;;;;;;31.10;22.55;;;16.10;99.90;;;;;;5111994;28;20043;-61
2022/05/19 00:48:53;;;;;;;30.52;23.73;;;16.00;99.90;;;;;;5112431;28;20051;-62
2022/05/19 00:51:24;;;;;;;37.13;25.70;;;16.00;99.90;;;;;;5112755;28;20349;-61
2022/05/19 00:53:54;;;;;;;33.47;25.55;;;16.00;99.90;;;;;;5112309;28;20087;-61
2022/05/19 00:56:40;;;;;;;32.00;25.80;;;15.90;99.90;;;;;;5112777;28;20063;-61
2022/05/19 00:59:12;;;;;;;38.33;28.13;;;15.80;99.90;;;;;;5112426;28;20048;-61
2022/05/19 01:01:41;;;;;;;31.42;26.95;;;15.80;99.90;;;;;;5093951;28;20493;-61
2022/05/19 01:04:45;;;;;;;35.40;27.75;;;15.80;99.90;;;;;;5094101;28;20438;-60
2022/05/19 01:07:18;;;;;;;32.22;27.80;;;15.80;99.90;;;;;;5055885;28;20142;-61
2022/05/19 01:09:45;;;;;;;35.95;27.27;;;15.90;99.90;;;;;;5112194;28;20130;-61
2022/05/19 01:12:11;;;;;;;36.30;28.23;;;15.90;99.90;;;;;;5112277;28;20086;-61
2022/05/19 01:14:37;;;;;;;37.80;27.52;;;16.00;99.90;;;;;;5111770;28;20036;-61
2022/05/19 01:17:05;;;;;;;32.13;27.27;;;15.90;99.90;;;;;;5112412;28;20124;-62
2022/05/19 01:19:36;;;;;;;36.40;28.40;;;15.90;99.90;;;;;;5112040;28;20051;-60
2022/05/19 01:22:27;;;;;;;32.40;28.05;;;15.90;99.90;;;;;;5112173;28;20102;-61
2022/05/19 01:25:18;;;;;;;36.95;27.85;;;15.90;99.90;;;;;;5111614;28;20039;-62
2022/05/19 01:27:44;;;;;;;31.27;27.25;;;15.90;99.90;;;;;;5077036;28;20105;-61
2022/05/19 01:30:11;;;;;;;34.80;27.33;;;15.90;99.90;;;;;;5112000;28;20435;-62
2022/05/19 01:32:38;;;;;;;32.42;26.48;;;15.90;99.90;;;;;;5111610;28;20044;-60
2022/05/19 01:35:04;;;;;;;34.75;28.30;;;15.90;99.90;;;;;;5111742;28;20043;-61
2022/05/19 01:37:30;;;;;;;35.90;28.77;;;15.80;99.90;;;;;;5093607;28;20051;-61
2022/05/19 01:40:34;;;;;;;34.45;26.95;;;15.80;99.90;;;;;;5093875;28;20257;-62
2022/05/19 01:43:17;;;;;;;35.60;28.88;;;15.70;99.90;;;;;;5095583;28;20213;-61
2022/05/19 01:45:57;;;;;;;36.70;30.30;;;15.70;99.90;;;;;;5114370;28;20135;-61
2022/05/19 01:48:42;;;;;;;37.55;29.08;;;15.60;99.90;;;;;;5116302;28;20043;-60
2022/05/19 01:51:14;;;;;;;40.67;29.85;;;15.60;99.90;;;;;;5116185;28;20087;-60
2022/05/19 01:54:09;;;;;;;37.78;30.55;;;15.50;99.90;;;;;;5080682;28;20063;-60
2022/05/19 01:56:54;;;;;;;39.55;30.10;;;15.50;99.90;;;;;;5097932;28;20051;-61
2022/05/19 01:59:34;;;;;;;38.88;32.25;;;15.50;99.90;;;;;;5115835;28;20067;-61
2022/05/19 02:02:28;;;;;;;38.67;30.08;;;15.50;99.90;;;;;;5115683;28;20046;-60
2022/05/19 02:05:15;;;;;;;44.47;31.38;;;15.50;99.90;;;;;;5101385;28;20051;-61
2022/05/19 02:07:45;;;;;;;40.28;32.00;;;15.60;99.90;;;;;;5115521;28;20051;-61
2022/05/19 02:10:17;;;;;;;41.92;31.42;;;15.70;99.90;;;;;;5097684;28;20246;-61
2022/05/19 02:12:45;;;;;;;37.97;31.40;;;15.70;99.90;;;;;;5115475;28;20063;-62
2022/05/19 02:15:17;;;;;;;42.35;35.20;;;15.70;99.90;;;;;;5115328;28;20112;-62
2022/05/19 02:17:44;;;;;;;46.75;33.90;;;15.60;99.90;;;;;;5097206;28;20173;-62
2022/05/19 02:20:13;;;;;;;45.28;35.85;;;15.60;99.90;;;;;;5115527;28;20066;-60
2022/05/19 02:22:42;;;;;;;45.38;37.80;;;15.60;99.90;;;;;;5115525;28;20054;-61
2022/05/19 02:25:33;;;;;;;46.60;37.03;;;15.60;99.90;;;;;;5115345;28;20501;-62
2022/05/19 02:28:23;;;;;;;47.08;37.05;;;15.60;99.90;;;;;;5115068;28;20044;-60
2022/05/19 02:30:49;;;;;;;50.03;39.30;;;15.60;99.90;;;;;;5096670;28;20184;-61
2022/05/19 02:33:16;;;;;;;51.45;39.53;;;15.70;99.90;;;;;;5097048;28;20456;-60
2022/05/19 02:35:43;;;;;;;46.85;40.13;;;15.60;99.90;;;;;;5115058;28;20044;-60
2022/05/19 02:38:09;;;;;;;54.35;40.42;;;15.70;99.90;;;;;;5115131;28;20047;-60
2022/05/19 02:40:36;;;;;;;54.22;42.65;;;15.70;99.90;;;;;;5115261;28;20087;-60
2022/05/19 02:43:03;;;;;;;57.45;43.35;;;15.70;99.90;;;;;;5114756;28;20423;-63
2022/05/19 02:45:29;;;;;;;55.40;43.65;;;15.70;99.90;;;;;;5114811;28;20040;-60
2022/05/19 02:47:56;;;;;;;54.45;43.45;;;15.70;99.90;;;;;;5096742;28;20473;-60
2022/05/19 02:50:22;;;;;;;50.78;43.13;;;15.70;99.90;;;;;;5115023;28;20082;-61
2022/05/19 02:52:48;;;;;;;54.88;42.83;;;15.70;99.90;;;;;;5096140;28;20060;-61
2022/05/19 02:55:14;;;;;;;53.45;44.88;;;15.70;99.90;;;;;;5096213;28;20047;-60
2022/05/19 02:57:41;;;;;;;51.75;42.70;;;15.80;99.90;;;;;;5096752;28;20051;-60
2022/05/19 03:00:12;;;;;;;53.60;42.35;;;15.80;99.90;;;;;;5079234;28;20043;-62
2022/05/19 03:02:39;;;;;;;58.42;43.45;;;15.70;99.90;;;;;;5114677;28;20477;-61
2022/05/19 03:05:07;;;;;;;53.38;40.25;;;15.80;99.90;;;;;;5114300;28;20051;-61
2022/05/19 03:07:32;;;;;;;53.03;40.63;;;15.80;99.90;;;;;;5114588;28;20059;-61
2022/05/19 03:09:58;;;;;;;51.58;38.92;;;15.80;99.90;;;;;;5096042;28;20047;-60
2022/05/19 03:12:24;;;;;;;48.55;39.80;;;15.80;99.90;;;;;;5114643;28;20043;-60
2022/05/19 03:14:49;;;;;;;49.75;39.20;;;15.80;99.90;;;;;;5096139;28;20133;-61
2022/05/19 03:17:15;;;;;;;50.45;38.83;;;15.80;99.90;;;;;;5096219;28;20039;-61
2022/05/19 03:19:41;;;;;;;44.53;36.63;;;15.80;99.90;;;;;;5114256;28;20072;-61
2022/05/19 03:22:07;;;;;;;46.60;38.15;;;15.80;99.90;;;;;;5096026;28;20070;-61
2022/05/19 03:24:34;;;;;;;48.72;38.83;;;15.80;99.90;;;;;;5096063;28;20042;-62
2022/05/19 03:26:59;;;;;;;49.88;37.17;;;15.80;99.90;;;;;;5113950;28;20039;-61
2022/05/19 03:29:25;;;;;;;53.47;38.83;;;15.90;99.90;;;;;;5096298;28;20051;-60
2022/05/19 03:31:51;;;;;;;48.00;36.97;;;15.90;99.90;;;;;;5095499;28;20127;-61
2022/05/19 03:34:17;;;;;;;48.35;37.30;;;15.90;99.90;;;;;;5113584;28;20532;-62
2022/05/19 03:36:49;;;;;;;51.85;39.53;;;15.90;99.90;;;;;;5113981;28;20138;-61
2022/05/19 03:39:15;;;;;;;51.28;37.15;;;15.90;99.90;;;;;;5095700;28;20052;-61
2022/05/19 03:41:41;;;;;;;50.55;40.00;;;16.00;99.90;;;;;;5113533;28;20508;-61
2022/05/19 03:44:06;;;;;;;53.00;40.75;;;15.90;99.90;;;;;;5095062;28;20083;-60
2022/05/19 03:46:32;;;;;;;54.15;40.53;;;15.90;99.90;;;;;;5113642;28;20126;-61
2022/05/19 03:48:58;;;;;;;54.35;40.75;;;15.90;99.90;;;;;;5113321;28;20039;-61
2022/05/19 03:51:27;;;;;;;56.85;42.22;;;16.00;99.90;;;;;;5113519;28;20050;-63
2022/05/19 03:53:53;;;;;;;52.90;42.25;;;16.00;99.90;;;;;;5112952;28;20055;-64
2022/05/19 03:56:20;;;;;;;54.55;42.17;;;16.00;99.90;;;;;;5113444;28;20097;-61
2022/05/19 03:58:48;;;;;;;52.40;41.33;;;16.00;99.90;;;;;;5113177;28;20555;-61
2022/05/19 04:01:14;;;;;;;58.90;44.38;;;16.00;99.90;;;;;;5113189;28;20176;-61
2022/05/19 04:03:41;;;;;;;58.60;44.78;;;16.00;99.90;;;;;;5094971;28;20044;-61
2022/05/19 04:06:06;;;;;;;63.80;45.63;;;16.00;99.90;;;;;;5113111;28;20035;-59
2022/05/19 04:08:33;;;;;;;58.80;41.63;;;16.00;99.90;;;;;;5077797;28;20056;-61
2022/05/19 04:10:58;;;;;;;58.13;43.50;;;16.00;99.90;;;;;;5112924;28;20051;-61
2022/05/19 04:13:24;;;;;;;54.80;44.90;;;16.10;99.90;;;;;;5113392;28;20035;-62
2022/05/19 04:15:50;;;;;;;60.53;44.88;;;16.10;99.90;;;;;;5113010;28;20082;-61
2022/05/19 04:18:15;;;;;;;60.13;47.45;;;16.10;99.90;;;;;;5094832;28;20047;-61
2022/05/19 04:20:42;;;;;;;61.65;44.05;;;16.20;99.90;;;;;;5113080;28;20397;-61
2022/05/19 04:23:08;;;;;;;62.22;46.42;;;16.20;99.90;;;;;;5112720;28;20400;-61
2022/05/19 04:25:34;;;;;;;62.53;46.72;;;16.20;99.90;;;;;;5094857;28;20043;-62
2022/05/19 04:28:00;;;;;;;60.08;44.42;;;16.20;99.90;;;;;;5094695;28;20131;-62
2022/05/19 04:30:26;;;;;;;57.00;45.90;;;16.20;99.90;;;;;;5112839;28;20089;-62
2022/05/19 04:32:52;;;;;;;62.10;44.63;;;16.20;99.90;;;;;;5094939;28;20078;-63
2022/05/19 04:35:18;;;;;;;62.03;43.92;;;16.30;99.90;;;;;;5112344;28;20066;-61
2022/05/19 04:37:45;;;;;;;54.97;41.58;;;16.30;99.90;;;;;;5112952;28;20044;-61
2022/05/19 04:40:13;;;;;;;57.15;43.67;;;16.30;99.90;;;;;;5112082;28;20532;-62
2022/05/19 04:42:39;;;;;;;59.00;44.35;;;16.40;99.90;;;;;;5112665;28;20082;-61
2022/05/19 04:45:05;;;;;;;58.17;43.47;;;16.40;99.90;;;;;;5112369;28;20152;-61
2022/05/19 04:47:31;;;;;;;52.33;42.00;;;16.50;99.90;;;;;;5112667;28;20043;-62
2022/05/19 04:49:57;;;;;;;56.80;43.85;;;16.60;99.90;;;;;;5112539;28;20048;-61
2022/05/19 04:52:23;;;;;;;54.47;41.85;;;16.60;99.90;;;;;;5112104;28;20051;-61
2022/05/19 04:54:49;;;;;;;57.33;42.28;;;16.70;99.90;;;;;;5112231;28;20477;-61
2022/05/19 04:57:15;;;;;;;51.10;37.63;;;16.80;99.90;;;;;;5093920;28;20122;-61
2022/05/19 04:59:41;;;;;;;53.20;41.25;;;16.90;99.90;;;;;;5112353;28;20409;-61
2022/05/19 05:02:09;;;;;;;52.35;42.00;;;17.00;99.90;;;;;;5111489;28;20044;-61
2022/05/19 05:04:35;;;;;;;52.17;40.38;;;17.00;99.90;;;;;;5112661;28;20031;-61
2022/05/19 05:07:01;;;;;;;52.30;38.97;;;17.10;99.90;;;;;;5112558;28;20049;-62
2022/05/19 05:09:27;;;;;;;52.60;42.13;;;17.10;99.90;;;;;;5112474;28;20075;-61
2022/05/19 05:11:53;;;;;;;48.72;38.75;;;17.20;99.90;;;;;;5077608;28;20576;-63
2022/05/19 05:14:19;;;;;;;54.95;41.17;;;17.30;99.90;;;;;;5111937;28;20082;-62
2022/05/19 05:16:50;;;;;;;50.35;40.78;;;17.30;99.90;;;;;;5094307;28;20176;-61
2022/05/19 05:19:19;;;;;;;46.38;38.45;;;17.40;99.90;;;;;;5112227;28;20043;-62
2022/05/19 05:21:49;;;;;;;47.30;39.15;;;17.50;99.90;;;;;;5112148;28;20047;-61
2022/05/19 05:24:15;;;;;;;50.60;38.65;;;17.60;99.90;;;;;;5111665;28;20070;-61
2022/05/19 05:26:41;;;;;;;44.50;34.97;;;17.80;99.90;;;;;;5112096;28;20382;-61
2022/05/19 05:29:07;;;;;;;50.50;38.72;;;18.00;99.90;;;;;;5076755;28;20046;-60
2022/05/19 05:31:33;;;;;;;46.08;37.20;;;18.10;99.90;;;;;;5111953;28;20342;-63
2022/05/19 05:33:59;;;;;;;45.20;35.03;;;18.30;99.90;;;;;;5111702;28;20044;-63
2022/05/19 05:36:25;;;;;;;41.17;33.80;;;18.40;99.90;;;;;;5111557;28;20649;-60
2022/05/19 05:38:50;;;;;;;40.85;32.92;;;18.50;99.90;;;;;;5093815;28;20060;-60
2022/05/19 05:41:16;;;;;;;41.30;32.30;;;18.60;99.90;;;;;;5111486;28;20039;-62
2022/05/19 05:43:42;;;;;;;37.70;30.73;;;18.70;99.90;;;;;;5112047;28;20075;-63
2022/05/19 05:46:12;;;;;;;38.97;31.30;;;18.90;99.90;;;;;;5111534;28;20043;-61
2022/05/19 05:48:38;;;;;;;34.97;28.85;;;19.00;99.90;;;;;;5111736;28;20047;-62
2022/05/19 05:51:06;;;;;;;32.75;29.13;;;19.20;99.90;;;;;;5093766;28;20120;-62
2022/05/19 05:53:32;;;;;;;35.45;29.52;;;19.40;99.90;;;;;;5110831;28;20143;-63
2022/05/19 05:55:58;;;;;;;36.65;29.60;;;19.60;99.90;;;;;;5111845;28;20166;-61
2022/05/19 05:58:24;;;;;;;37.10;29.40;;;19.90;99.90;;;;;;5093582;28;20044;-61
2022/05/19 06:00:50;;;;;;;32.35;28.20;;;20.00;99.90;;;;;;5111751;28;20103;-62
2022/05/19 06:03:15;;;;;;;31.40;27.27;;;20.00;99.90;;;;;;5111270;28;20039;-62
2022/05/19 06:05:42;;;;;;;31.95;27.42;;;20.10;99.90;;;;;;5093245;28;20059;-60
2022/05/19 06:08:08;;;;;;;30.48;25.83;;;20.20;99.90;;;;;;5093277;28;20055;-62
2022/05/19 06:10:34;;;;;;;31.30;25.63;;;20.40;99.90;;;;;;5092727;28;20044;-65
2022/05/19 06:13:00;;;;;;;30.50;25.23;;;20.60;99.90;;;;;;5111578;28;20053;-62
2022/05/19 06:15:26;;;;;;;29.98;25.25;;;20.80;99.90;;;;;;5111302;28;20043;-62
2022/05/19 06:17:52;;;;;;;30.20;24.27;;;20.80;99.90;;;;;;5111770;28;20126;-62
2022/05/19 06:20:18;;;;;;;33.33;23.92;;;20.70;99.90;;;;;;5093113;28;20039;-62
2022/05/19 06:22:46;;;;;;;28.42;23.77;;;20.60;99.90;;;;;;5111533;28;20040;-60
2022/05/19 06:25:15;;;;;;;26.10;22.50;;;20.50;99.90;;;;;;5111498;28;20116;-67
2022/05/19 06:27:42;;;;;;;29.63;23.00;;;20.50;99.90;;;;;;5111484;28;20055;-61
2022/05/19 06:30:08;;;;;;;26.63;21.25;;;20.50;99.90;;;;;;5093602;28;20059;-62
2022/05/19 06:32:36;;;;;;;27.17;22.00;;;20.60;99.90;;;;;;5115028;28;20292;-62
2022/05/19 06:35:02;;;;;;;24.90;21.90;;;20.70;99.90;;;;;;5097051;28;20047;-62
2022/05/19 06:37:27;;;;;;;25.75;20.35;;;20.70;99.90;;;;;;5096768;28;20044;-60
2022/05/19 06:39:53;;;;;;;25.27;19.33;;;20.80;99.90;;;;;;5114841;28;20044;-62
2022/05/19 06:42:19;;;;;;;24.52;20.42;;;21.20;99.90;;;;;;5096545;28;20388;-62
2022/05/19 06:44:44;;;;;;;21.83;19.52;;;21.30;99.90;;;;;;5079754;28;20434;-63
2022/05/19 06:47:16;;;;;;;22.92;18.65;;;21.20;99.90;;;;;;5115224;28;20134;-62
2022/05/19 06:49:44;;;;;;;23.35;19.52;;;20.90;99.90;;;;;;5115145;28;20044;-63
2022/05/19 06:52:13;;;;;;;24.80;21.25;;;20.70;99.90;;;;;;5114929;28;20058;-62
2022/05/19 06:54:43;;;;;;;26.23;19.58;;;20.50;99.90;;;;;;5114577;28;20544;-62
2022/05/19 06:57:09;;;;;;;23.83;19.40;;;20.20;99.90;;;;;;5114915;28;20127;-61
2022/05/19 06:59:35;;;;;;;21.88;17.45;;;20.00;99.90;;;;;;5096428;28;20127;-62
2022/05/19 07:02:01;;;;;;;21.42;18.27;;;19.80;99.90;;;;;;5115161;28;20083;-62
2022/05/19 07:04:26;;;;;;;21.35;17.98;;;19.70;99.90;;;;;;5114395;28;20066;-63
2022/05/19 07:06:52;;;;;;;22.00;17.95;;;19.60;99.90;;;;;;5096689;28;20044;-64
2022/05/19 07:09:18;;;;;;;25.40;18.40;;;19.50;99.90;;;;;;5096140;28;20111;-67
2022/05/19 07:11:44;;;;;;;21.65;17.60;;;19.40;99.90;;;;;;5096171;28;20122;-62
2022/05/19 07:14:10;;;;;;;23.88;18.98;;;19.30;99.90;;;;;;5114176;28;20044;-64
2022/05/19 07:16:36;;;;;;;26.15;20.13;;;19.20;99.90;;;;;;5113950;28;20400;-62
2022/05/19 07:21:48;;;;;;;22.98;19.60;;;19.10;99.90;;;;;;5114277;28;20192;-62
2022/05/19 07:24:16;;;;;;;27.25;21.52;;;19.10;99.90;;;;;;5114006;28;20040;-61
2022/05/19 07:26:44;;;;;;;23.50;20.95;;;19.10;99.90;;;;;;5113476;28;20502;-61
2022/05/19 07:29:10;;;;;;;24.80;21.15;;;19.10;99.90;;;;;;5114032;28;20112;-61
2022/05/19 07:31:36;;;;;;;24.35;21.75;;;19.10;99.90;;;;;;5113705;28;20093;-61
2022/05/19 07:34:05;;;;;;;27.13;20.65;;;19.10;99.90;;;;;;5114102;28;20047;-61
2022/05/19 07:36:32;;;;;;;25.50;21.73;;;19.00;99.90;;;;;;5112872;28;20095;-60
2022/05/19 07:39:02;;;;;;;25.95;21.35;;;19.00;99.90;;;;;;5113751;28;20083;-61
2022/05/19 07:41:29;;;;;;;26.08;22.15;;;18.90;99.90;;;;;;5112987;28;20100;-61
2022/05/19 07:43:55;;;;;;;26.05;20.42;;;18.90;99.90;;;;;;5112621;28;20047;-61
2022/05/19 07:46:21;;;;;;;27.83;19.88;;;18.80;99.90;;;;;;5113133;28;20130;-61
2022/05/19 07:48:47;;;;;;;28.27;19.65;;;18.80;99.90;;;;;;5112808;28;20151;-61
2022/05/19 07:51:13;;;;;;;24.30;17.75;;;18.70;99.90;;;;;;5094811;28;20054;-61
2022/05/19 07:53:39;;;;;;;24.40;15.57;;;18.60;99.90;;;;;;5112056;28;20052;-60
2022/05/19 07:56:05;;;;;;;21.55;11.85;;;18.70;99.90;;;;;;5094870;28;20396;-61
2022/05/19 07:58:30;;;;;;;19.05;10.90;;;18.70;99.90;;;;;;5112786;28;20055;-60
2022/05/19 08:00:57;;;;;;;21.02;9.98;;;18.80;99.90;;;;;;5094758;28;20048;-61
2022/05/19 08:03:24;;;;;;;17.75;9.75;;;18.90;99.90;;;;;;5112324;28;20093;-65
2022/05/19 08:05:50;;;;;;;18.98;9.93;;;18.90;99.90;;;;;;5112328;28;20052;-61
2022/05/19 08:08:16;;;;;;;18.40;9.45;;;18.90;99.90;;;;;;5059507;28;20043;-58
2022/05/19 08:10:42;;;;;;;16.65;9.77;;;18.90;99.90;;;;;;5111742;28;20054;-59
2022/05/19 08:15:52;;;;;;;12.60;8.68;;;19.00;99.90;;;;;;5093660;28;20429;-59
2022/05/19 08:18:22;;;;;;;17.77;8.95;;;19.00;99.90;;;;;;5111424;28;20131;-59
2022/05/19 08:20:56;;;;;;;16.25;8.77;;;19.00;99.90;;;;;;5111709;28;20040;-60
2022/05/19 08:23:28;;;;;;;17.35;8.65;;;19.00;99.90;;;;;;5112224;28;20094;-59
2022/05/19 08:25:55;;;;;;;13.10;7.65;;;19.10;99.90;;;;;;5112213;28;20126;-58
2022/05/19 08:28:21;;;;;;;15.70;7.80;;;19.10;99.90;;;;;;5109121;28;20423;-60
2022/05/19 08:30:51;;;;;;;12.15;7.07;;;19.10;99.90;;;;;;5110529;28;20047;-61
2022/05/19 08:33:18;;;;;;;14.73;7.65;;;19.10;99.90;;;;;;5092680;28;20441;-58
2022/05/19 08:35:44;;;;;;;14.10;6.80;;;19.20;99.90;;;;;;5111430;28;20457;-59
2022/05/19 08:38:10;;;;;;;9.80;6.47;;;19.10;99.90;;;;;;5093630;28;20102;-60
2022/05/19 08:41:25;;;;;;;10.05;6.22;;;19.20;99.90;;;;;;5111225;28;20055;-59
2022/05/19 08:43:57;;;;;;;12.38;6.32;;;19.30;99.90;;;;;;5088763;28;20505;-59
2022/05/19 08:46:32;;;;;;;12.77;6.68;;;19.30;99.90;;;;;;5110935;28;20411;-58
2022/05/19 08:49:12;;;;;;;11.05;6.82;;;19.30;99.90;;;;;;5111265;28;20549;-58
2022/05/19 08:51:50;;;;;;;12.95;6.93;;;19.20;99.90;;;;;;5093619;28;20108;-59
2022/05/19 08:54:23;;;;;;;14.85;7.45;;;19.30;99.90;;;;;;5109743;28;20142;-58
2022/05/19 08:57:01;;;;;;;10.75;6.32;;;19.40;99.90;;;;;;5093217;28;20101;-59
2022/05/19 08:59:56;;;;;;;13.98;7.40;;;19.50;99.90;;;;;;5093672;28;20122;-58
2022/05/19 09:02:50;;;;;;;12.77;6.82;;;19.70;99.90;;;;;;5111888;28;20152;-59
2022/05/19 09:05:42;;;;;;;13.07;6.50;;;19.90;99.90;;;;;;5111539;28;20128;-59
2022/05/19 09:08:39;;;;;;;18.10;6.80;;;20.20;99.90;;;;;;5093562;28;20504;-59
2022/05/19 09:11:12;;;;;;;13.48;6.38;;;20.40;99.90;;;;;;5046971;28;20097;-60
2022/05/19 09:14:01;;;;;;;18.83;6.88;;;20.70;99.90;;;;;;5111341;28;20047;-60
2022/05/19 09:16:30;;;;;;;10.13;5.65;;;20.90;99.90;;;;;;5111357;28;20489;-61
2022/05/19 09:19:01;;;;;;;10.13;6.22;;;21.00;99.90;;;;;;5092699;28;20116;-60
2022/05/19 09:21:27;;;;;;;10.40;6.15;;;21.20;99.90;;;;;;5111659;28;20513;-61
2022/05/19 09:23:53;;;;;;;10.60;6.18;;;21.40;99.90;;;;;;5108404;28;20035;-62
2022/05/19 09:26:45;;;;;;;10.02;6.53;;;21.60;99.90;;;;;;5111363;28;20047;-61
2022/05/19 09:29:17;;;;;;;9.10;6.00;;;21.70;99.90;;;;;;5111970;28;20047;-59
2022/05/19 09:31:51;;;;;;;8.63;5.45;;;21.80;99.90;;;;;;5111401;28;20210;-62
2022/05/19 09:34:17;;;;;;;7.38;4.88;;;22.00;99.90;;;;;;5093293;28;20107;-60
2022/05/19 09:37:14;;;;;;;9.57;5.30;;;22.20;99.90;;;;;;5111607;28;20130;-60
2022/05/19 09:39:47;;;;;;;8.63;5.38;;;22.40;99.90;;;;;;5111053;28;20100;-60
2022/05/19 09:42:19;;;;;;;8.57;4.90;;;22.40;99.90;;;;;;5111283;28;20043;-61
2022/05/19 09:44:55;;;;;;;10.43;5.50;;;22.50;99.90;;;;;;5075169;28;20043;-61
2022/05/19 09:47:36;;;;;;;7.05;4.93;;;22.60;99.90;;;;;;5092750;28;20446;-61
2022/05/19 09:50:22;;;;;;;6.68;4.90;;;22.60;99.90;;;;;;5111191;28;20075;-60
2022/05/19 09:52:47;;;;;;;8.25;4.72;;;22.70;99.90;;;;;;5111020;28;20079;-60
2022/05/19 09:55:16;;;;;;;6.82;5.65;;;22.70;99.90;;;;;;5111047;28;20102;-61
2022/05/19 09:57:43;;;;;;;7.60;4.82;;;22.70;99.90;;;;;;5110819;28;20043;-60
2022/05/19 10:00:11;;;;;;;6.40;5.10;;;22.80;99.90;;;;;;5093263;28;20274;-60
2022/05/19 10:02:44;;;;;;;8.82;5.18;;;23.00;99.90;;;;;;5111488;28;20124;-62
2022/05/19 10:05:28;;;;;;;8.82;4.82;;;23.00;99.90;;;;;;5094075;28;20036;-60
2022/05/19 10:08:00;;;;;;;5.40;4.30;;;23.10;99.90;;;;;;5114702;28;20039;-60
2022/05/19 10:10:28;;;;;;;8.27;5.47;;;23.20;99.90;;;;;;5097196;28;20404;-61
2022/05/19 10:13:02;;;;;;;9.15;4.93;;;23.10;99.90;;;;;;5114358;28;20392;-59
2022/05/19 10:15:40;;;;;;;13.75;5.07;;;23.20;99.90;;;;;;5115469;28;20119;-62
2022/05/19 10:18:28;;;;;;;10.88;5.25;;;23.10;99.90;;;;;;5114720;28;20051;-63
2022/05/19 10:21:26;;;;;;;11.13;5.20;;;23.10;99.90;;;;;;5114896;28;20097;-61
2022/05/19 10:24:11;;;;;;;8.95;4.95;;;23.10;99.90;;;;;;5114694;28;20126;-60
2022/05/19 10:33:30;;;;;;;10.23;5.20;;;23.30;99.90;;;;;;5084582;28;20565;-61
2022/05/19 10:36:20;;;;;;;12.52;6.00;;;23.50;99.90;;;;;;5023388;28;20113;-62
2022/05/19 10:39:04;;;;;;;13.25;6.00;;;23.60;99.90;;;;;;5114286;28;20040;-60
2022/05/19 10:41:40;;;;;;;;;;;23.80;99.90;;;;;;5115385;28;20047;-59
2022/05/19 10:44:08;;;;;;;9.32;6.30;;;23.90;99.90;;;;;;5114551;28;19926;-60
2022/05/19 10:46:56;;;;;;;10.05;5.18;;;23.90;99.90;;;;;;5096449;28;20076;-61
2022/05/19 10:49:42;;;;;;;7.70;4.60;;;24.00;99.90;;;;;;5095849;28;20395;-60
2022/05/19 10:52:20;;;;;;;7.60;4.60;;;24.10;99.90;;;;;;5114345;28;20097;-60
2022/05/19 10:55:09;;;;;;;6.80;4.78;;;24.10;99.90;;;;;;5113297;28;20066;-65
2022/05/19 10:57:56;;;;;;;11.55;5.40;;;24.00;99.90;;;;;;5114441;28;20048;-60
2022/05/19 11:00:39;;;;;;;9.20;5.85;;;24.00;99.90;;;;;;5114386;28;20139;-60
2022/05/19 11:03:17;;;;;;;7.18;5.03;;;24.20;99.90;;;;;;5095863;28;20571;-59
2022/05/19 11:06:43;;;;;;;7.50;4.28;;;24.20;99.90;;;;;;5114355;28;20059;-61
2022/05/19 11:09:41;;;;;;;6.32;4.05;;;24.40;99.90;;;;;;5010893;28;20054;-60
2022/05/19 11:12:30;;;;;;;9.43;5.43;;;24.40;99.90;;;;;;5039403;28;20047;-60
2022/05/19 11:15:17;;;;;;;9.00;5.80;;;24.40;99.90;;;;;;5113823;28;20047;-59
2022/05/19 11:17:59;;;;;;;17.35;6.63;;;24.40;99.90;;;;;;5113764;28;20089;-59
2022/05/19 11:20:45;;;;;;;12.35;6.53;;;24.50;99.90;;;;;;5095975;28;20054;-60
2022/05/19 11:23:20;;;;;;;10.40;6.40;;;24.40;99.90;;;;;;5095094;28;20508;-63
2022/05/19 11:28:49;;;;;;;11.43;4.90;;;24.30;99.90;;;;;;5113905;28;20396;-60
2022/05/19 11:31:30;;;;;;;9.27;5.95;;;24.40;99.90;;;;;;5113749;28;20051;-60
2022/05/19 11:34:01;;;;;;;9.65;6.65;;;24.40;99.90;;;;;;5113582;28;20397;-60
2022/05/19 11:36:49;;;;;;;7.57;5.55;;;24.40;99.90;;;;;;5095712;28;20077;-60
2022/05/19 11:39:40;;;;;;;7.43;5.18;;;24.50;99.90;;;;;;5113383;28;20093;-61
2022/05/19 11:42:28;;;;;;;6.15;4.80;;;24.60;99.90;;;;;;5112630;28;20069;-62
2022/05/19 11:44:54;;;;;;;14.32;6.35;;;24.80;99.90;;;;;;5094864;28;20040;-60
2022/05/19 11:56:27;;;;;;;8.52;7.25;;;24.80;99.90;;;;;;5113538;28;20058;-60
2022/05/19 11:58:53;;;;;;;11.60;5.45;;;24.80;99.90;;;;;;5112747;28;20039;-61
2022/05/19 12:01:33;;;;;;;8.32;6.25;;;24.90;99.90;;;;;;5095206;28;20142;-60
2022/05/19 12:04:18;;;;;;;9.27;6.55;;;24.80;99.90;;;;;;5113041;28;20040;-61
2022/05/19 12:06:50;;;;;;;10.48;7.47;;;24.80;99.90;;;;;;5113176;28;20098;-61
2022/05/19 12:09:31;;;;;;;11.85;8.50;;;24.90;99.90;;;;;;5112799;28;20086;-60
2022/05/19 12:12:02;;;;;;;12.18;9.10;;;24.90;99.90;;;;;;5112039;28;20047;-65
2022/05/19 12:14:38;;;;;;;11.65;8.65;;;24.80;99.90;;;;;;5094101;28;20051;-61
2022/05/19 12:17:13;;;;;;;14.60;10.30;;;24.80;99.90;;;;;;5112575;28;20050;-62
2022/05/19 12:19:47;;;;;;;12.45;10.60;;;24.80;99.90;;;;;;5094793;28;20093;-60
2022/05/19 12:22:36;;;;;;;16.40;10.98;;;24.80;99.90;;;;;;5112833;28;20044;-61
2022/05/19 12:25:03;;;;;;;23.95;12.73;;;24.80;99.90;;;;;;5112690;28;20506;-60
2022/05/19 12:27:37;;;;;;;16.63;12.43;;;24.80;99.90;;;;;;5112584;28;20066;-61
2022/05/19 12:33:21;;;;;;;13.23;11.80;;;24.70;99.90;;;;;;5112487;28;20055;-62
2022/05/19 12:36:36;;;;;;;14.80;12.05;;;24.60;99.90;;;;;;5112136;28;20503;-61
2022/05/19 12:39:45;;;;;;;18.80;10.98;;;24.60;99.90;;;;;;5088384;28;20058;-61
2022/05/19 12:42:18;;;;;;;12.73;10.98;;;24.60;99.90;;;;;;5045697;28;20146;-61
2022/05/19 12:44:50;;;;;;;14.98;10.73;;;24.60;99.90;;;;;;5094362;28;20044;-61
2022/05/19 12:47:16;;;;;;;12.80;9.90;;;24.60;99.90;;;;;;5112330;28;20049;-62
2022/05/19 12:50:00;;;;;;;13.98;10.00;;;24.50;99.90;;;;;;5112319;28;20419;-61
2022/05/19 12:52:55;;;;;;;13.68;9.10;;;24.50;99.90;;;;;;5112611;28;20130;-61
2022/05/19 12:55:24;;;;;;;13.60;10.35;;;24.40;99.90;;;;;;5076567;28;20051;-62
2022/05/19 12:57:53;;;;;;;13.90;10.82;;;24.40;99.90;;;;;;5112126;28;20435;-61
2022/05/19 13:00:19;;;;;;;13.57;9.63;;;24.20;99.90;;;;;;5112096;28;20046;-62
2022/05/19 13:03:03;;;;;;;13.95;9.70;;;24.10;99.90;;;;;;5112233;28;20058;-61
2022/05/19 13:05:36;;;;;;;7.60;6.35;;;23.70;99.90;;;;;;5112087;28;20621;-60
2022/05/19 13:08:15;;;;;;;19.02;5.80;;;23.00;99.90;;;;;;5111563;28;20043;-66
2022/05/19 13:10:46;;;;;;;6.30;3.33;;;22.50;99.90;;;;;;5112234;28;20044;-61
2022/05/19 13:13:21;;;;;;;8.05;3.30;;;22.10;99.90;;;;;;5093638;28;20051;-61
2022/05/19 13:15:53;;;;;;;8.93;4.30;;;21.70;99.90;;;;;;5111841;28;20039;-60
2022/05/19 13:18:23;;;;;;;9.38;5.10;;;21.40;99.90;;;;;;5111686;28;20392;-61
2022/05/19 13:20:49;;;;;;;10.18;5.15;;;21.20;99.90;;;;;;5111994;28;20130;-60
2022/05/19 13:23:29;;;;;;;8.60;5.07;;;21.10;99.90;;;;;;5111336;28;20053;-63